Corbin, Virginia
Current Conditions -  °F | °C
As of 1:35 AM on Monday 24 Nov 2014 (Local Time) from KEZF Reporting Station
Overcast Overcast  
Wind Chill: 63°   Ceiling: 1000
Heat Index: 63°   Visibility: 10mi
Dew Point: 63°   Wind: 18mph
Humidity: 100%   Direction: 170°S
Pressure: 29.66"   Gusts: 26mph
Location:  38.2°N, 77.39°W
Report Text: KEZF 240635Z AUTO 17016G23KT 10SM OVC010 17/17 A2966 RMK AO2
Loading
Personal Weather Stations






























Interactive Weather Map New forecast layout! Learn more

10-Day Weather Forecast

Advertisements
Track Severe Weather on mobile